createdAt,value
2024-05-09T00:00:31.554Z,11.22
2024-05-09T00:01:26.836Z,11.20
2024-05-09T00:02:26.920Z,11.22
2024-05-09T00:03:26.907Z,11.18
2024-05-09T00:04:26.790Z,11.18
2024-05-09T00:05:26.789Z,11.16
2024-05-09T00:06:26.777Z,11.18
2024-05-09T00:07:26.768Z,11.15
2024-05-09T00:08:26.732Z,11.15
2024-05-09T00:09:26.706Z,11.15
2024-05-09T00:10:35.024Z,11.16
2024-05-09T00:11:26.788Z,11.19
2024-05-09T00:12:26.714Z,11.18
2024-05-09T00:13:26.672Z,11.18
2024-05-09T00:14:26.843Z,11.19
2024-05-09T00:15:26.669Z,11.16
2024-05-09T00:16:26.642Z,11.15
2024-05-09T00:17:26.873Z,11.15
2024-05-09T00:18:26.753Z,11.18
2024-05-09T00:19:26.706Z,11.15
2024-05-09T00:20:35.090Z,11.11
2024-05-09T00:21:26.592Z,11.09
2024-05-09T00:22:26.589Z,11.08
2024-05-09T00:23:26.639Z,11.08
2024-05-09T00:24:26.567Z,11.09
2024-05-09T00:25:26.572Z,11.05
2024-05-09T00:26:26.610Z,11.05
2024-05-09T00:27:26.514Z,11.05
2024-05-09T00:28:26.513Z,11.08
2024-05-09T00:29:26.719Z,11.03
2024-05-09T00:30:33.489Z,10.95
2024-05-09T00:31:26.542Z,10.93
2024-05-09T00:32:26.791Z,10.91
2024-05-09T00:33:26.777Z,10.87
2024-05-09T00:34:26.567Z,10.86
2024-05-09T00:35:26.571Z,10.86
2024-05-09T00:36:26.436Z,10.87
2024-05-09T00:37:26.416Z,10.86
2024-05-09T00:38:26.526Z,10.86
2024-05-09T00:39:26.432Z,10.83
2024-05-09T00:40:35.599Z,10.80
2024-05-09T00:41:26.442Z,10.80
2024-05-09T00:42:26.372Z,10.76
2024-05-09T00:43:26.349Z,10.75
2024-05-09T00:44:26.441Z,10.75
2024-05-09T00:45:26.336Z,10.75
2024-05-09T00:46:26.349Z,10.75
2024-05-09T00:47:26.483Z,10.73
2024-05-09T00:48:26.619Z,10.75
2024-05-09T00:49:26.522Z,10.68
2024-05-09T00:50:34.077Z,10.70
2024-05-09T00:51:26.277Z,10.72
2024-05-09T00:52:26.292Z,10.70
2024-05-09T00:53:26.323Z,10.73
2024-05-09T00:54:28.123Z,10.68
2024-05-09T00:55:26.229Z,10.70
2024-05-09T00:56:26.300Z,10.72
2024-05-09T00:57:26.213Z,10.73
2024-05-09T00:58:26.239Z,10.73
2024-05-09T00:59:26.333Z,10.68
2024-05-09T01:00:31.904Z,10.72
2024-05-09T01:01:26.227Z,10.70
2024-05-09T01:02:26.192Z,10.70
2024-05-09T01:03:26.449Z,10.72
2024-05-09T01:04:26.162Z,10.67
2024-05-09T01:05:26.150Z,10.65
2024-05-09T01:06:26.113Z,10.61
2024-05-09T01:07:26.091Z,10.60
2024-05-09T01:08:26.124Z,10.58
2024-05-09T01:09:26.079Z,10.57
2024-05-09T01:10:33.549Z,10.58
2024-05-09T01:11:26.178Z,10.57
2024-05-09T01:12:26.115Z,10.55
2024-05-09T01:13:26.051Z,10.57
2024-05-09T01:14:26.197Z,10.57
2024-05-09T01:15:26.045Z,10.57
2024-05-09T01:16:26.027Z,10.52
2024-05-09T01:17:26.127Z,10.54
2024-05-09T01:18:26.060Z,10.52
2024-05-09T01:19:26.205Z,10.49
2024-05-09T01:20:37.199Z,10.52
2024-05-09T01:21:26.003Z,10.48
2024-05-09T01:22:25.972Z,10.49
2024-05-09T01:23:25.955Z,10.46
2024-05-09T01:24:25.924Z,10.48
2024-05-09T01:25:25.909Z,10.43
2024-05-09T01:26:26.019Z,10.45
2024-05-09T01:27:25.896Z,10.41
2024-05-09T01:28:25.886Z,10.43
2024-05-09T01:29:26.052Z,10.38
2024-05-09T01:30:33.005Z,10.39
2024-05-09T01:31:25.867Z,10.41
2024-05-09T01:32:26.001Z,10.38
2024-05-09T01:33:26.093Z,10.38
2024-05-09T01:34:25.831Z,10.39
2024-05-09T01:35:25.886Z,10.41
2024-05-09T01:36:25.792Z,10.43
2024-05-09T01:37:25.774Z,10.46
2024-05-09T01:38:25.821Z,10.45
2024-05-09T01:39:25.766Z,10.46
2024-05-09T01:40:36.109Z,10.48
2024-05-09T01:41:25.799Z,10.46
2024-05-09T01:42:25.737Z,10.45
2024-05-09T01:43:25.737Z,10.45
2024-05-09T01:44:25.793Z,10.46
2024-05-09T01:45:25.682Z,10.49
2024-05-09T01:46:25.711Z,10.49
2024-05-09T01:47:25.842Z,10.49
2024-05-09T01:48:25.734Z,10.48
2024-05-09T01:49:25.754Z,10.49
2024-05-09T01:50:37.014Z,10.46
2024-05-09T01:51:25.659Z,10.42
2024-05-09T01:52:25.648Z,10.38
2024-05-09T01:53:25.701Z,10.38
2024-05-09T01:54:25.597Z,10.36
2024-05-09T01:55:25.581Z,10.35
2024-05-09T01:56:25.604Z,10.38
2024-05-09T01:57:25.555Z,10.36
2024-05-09T01:58:25.552Z,10.31
2024-05-09T01:59:25.766Z,10.34
2024-05-09T02:00:34.185Z,10.34
2024-05-09T02:01:25.531Z,10.26
2024-05-09T02:02:25.599Z,10.24
2024-05-09T02:03:25.631Z,10.21
2024-05-09T02:04:25.803Z,10.20
2024-05-09T02:05:25.622Z,10.17
2024-05-09T02:06:25.484Z,10.16
2024-05-09T02:07:25.452Z,10.16
2024-05-09T02:08:25.517Z,10.16
2024-05-09T02:09:25.425Z,10.12
2024-05-09T02:10:31.965Z,10.09
2024-05-09T02:11:25.503Z,10.09
2024-05-09T02:12:25.554Z,10.06
2024-05-09T02:13:25.399Z,10.03
2024-05-09T02:14:25.445Z,10.03
2024-05-09T02:15:25.405Z,9.99
2024-05-09T02:16:25.366Z,9.94
2024-05-09T02:17:25.534Z,9.91
2024-05-09T02:18:25.534Z,9.91
2024-05-09T02:19:25.462Z,9.90
2024-05-09T02:20:33.830Z,9.87
2024-05-09T02:21:25.326Z,9.85
2024-05-09T02:22:25.304Z,9.80
2024-05-09T02:23:25.332Z,9.77
2024-05-09T02:24:25.273Z,9.78
2024-05-09T02:25:25.261Z,9.77
2024-05-09T02:26:25.279Z,9.77
2024-05-09T02:27:25.260Z,9.77
2024-05-09T02:28:25.239Z,9.72
2024-05-09T02:29:25.400Z,9.69
2024-05-09T02:30:35.124Z,9.72
2024-05-09T02:31:25.203Z,9.72
2024-05-09T02:32:25.396Z,9.77
2024-05-09T02:33:25.479Z,9.72
2024-05-09T02:34:25.298Z,9.72
2024-05-09T02:35:25.210Z,9.78
2024-05-09T02:36:25.155Z,9.75
2024-05-09T02:37:25.151Z,9.75
2024-05-09T02:38:25.184Z,9.72
2024-05-09T02:39:25.188Z,9.72
2024-05-09T02:40:33.364Z,9.75
2024-05-09T02:41:25.184Z,9.75
2024-05-09T02:42:25.082Z,9.77
2024-05-09T02:43:25.084Z,9.80
2024-05-09T02:44:25.188Z,9.77
2024-05-09T02:45:25.080Z,9.80
2024-05-09T02:46:25.076Z,9.83
2024-05-09T02:47:25.169Z,9.83
2024-05-09T02:48:25.167Z,9.84
2024-05-09T02:49:25.079Z,9.85
2024-05-09T02:50:33.537Z,9.84
2024-05-09T02:51:25.017Z,9.85
2024-05-09T02:52:24.975Z,9.87
2024-05-09T02:53:24.991Z,9.85
2024-05-09T02:54:24.968Z,9.84
2024-05-09T02:55:24.980Z,9.84
2024-05-09T02:56:24.971Z,9.80
2024-05-09T02:57:24.943Z,9.80
2024-05-09T02:58:24.913Z,9.83
2024-05-09T02:59:25.025Z,9.81
2024-05-09T03:00:34.241Z,9.83
2024-05-09T03:01:24.907Z,9.81
2024-05-09T03:02:24.971Z,9.80
2024-05-09T03:03:25.127Z,9.81
2024-05-09T03:04:24.891Z,9.83
2024-05-09T03:05:24.969Z,9.85
2024-05-09T03:06:24.838Z,9.87
2024-05-09T03:07:24.825Z,9.88
2024-05-09T03:08:24.819Z,9.87
2024-05-09T03:09:24.810Z,9.85
2024-05-09T03:10:28.631Z,9.84
2024-05-09T03:11:24.831Z,9.84
2024-05-09T03:12:24.779Z,9.78
2024-05-09T03:13:24.731Z,9.80
2024-05-09T03:14:24.935Z,9.80
2024-05-09T03:15:24.684Z,9.84
2024-05-09T03:16:24.680Z,9.78
2024-05-09T03:17:24.909Z,9.78
2024-05-09T03:18:24.771Z,9.81
2024-05-09T03:19:24.778Z,9.78
2024-05-09T03:20:32.279Z,9.78
2024-05-09T03:21:24.631Z,9.77
2024-05-09T03:22:24.692Z,9.80
2024-05-09T03:23:24.640Z,9.80
2024-05-09T03:24:24.606Z,9.80
2024-05-09T03:25:24.609Z,9.81
2024-05-09T03:26:24.601Z,9.78
2024-05-09T03:27:24.536Z,9.81
2024-05-09T03:28:24.524Z,9.78
2024-05-09T03:29:24.682Z,9.78
2024-05-09T03:30:31.188Z,9.78
2024-05-09T03:31:24.519Z,9.78
2024-05-09T03:32:24.631Z,9.75
2024-05-09T03:33:24.741Z,9.77
2024-05-09T03:34:24.512Z,9.75
2024-05-09T03:35:24.578Z,9.75
2024-05-09T03:36:24.489Z,9.75
2024-05-09T03:37:24.435Z,9.70
2024-05-09T03:38:24.446Z,9.65
2024-05-09T03:39:24.422Z,9.62
2024-05-09T03:40:28.917Z,9.62
2024-05-09T03:41:24.486Z,9.60
2024-05-09T03:42:24.424Z,9.59
2024-05-09T03:43:24.664Z,9.59
2024-05-09T03:44:24.383Z,9.60
2024-05-09T03:45:24.363Z,9.62
2024-05-09T03:46:24.355Z,9.60
2024-05-09T03:47:24.448Z,9.60
2024-05-09T03:48:24.546Z,9.60
2024-05-09T03:49:24.753Z,9.60
2024-05-09T03:50:30.162Z,9.57
2024-05-09T03:51:24.304Z,9.55
2024-05-09T03:52:24.274Z,9.50
2024-05-09T03:53:24.352Z,9.51
2024-05-09T03:54:24.304Z,9.48
2024-05-09T03:55:24.296Z,9.48
2024-05-09T03:56:24.326Z,9.50
2024-05-09T03:57:24.315Z,9.42
2024-05-09T03:58:24.216Z,9.40
2024-05-09T03:59:24.378Z,9.36
2024-05-09T04:00:31.369Z,9.34
2024-05-09T04:01:24.308Z,9.34
2024-05-09T04:02:24.253Z,9.33
2024-05-09T04:03:24.484Z,9.34
2024-05-09T04:04:24.175Z,9.36
2024-05-09T04:05:24.170Z,9.40
2024-05-09T04:06:24.200Z,9.37
2024-05-09T04:07:24.141Z,9.40
2024-05-09T04:08:24.263Z,9.40
2024-05-09T04:09:24.112Z,9.42
2024-05-09T04:10:31.027Z,9.40
2024-05-09T04:11:24.195Z,9.40
2024-05-09T04:12:24.142Z,9.40
2024-05-09T04:13:24.060Z,9.37
2024-05-09T04:14:24.094Z,9.36
2024-05-09T04:15:24.050Z,9.37
2024-05-09T04:16:24.054Z,9.37
2024-05-09T04:17:24.142Z,9.42
2024-05-09T04:18:24.169Z,9.40
2024-05-09T04:19:24.166Z,9.37
2024-05-09T04:20:33.449Z,9.42
2024-05-09T04:21:23.970Z,9.45
2024-05-09T04:22:23.960Z,9.45
2024-05-09T04:23:24.093Z,9.50
2024-05-09T04:24:23.985Z,9.51
2024-05-09T04:25:23.938Z,9.52
2024-05-09T04:26:23.948Z,9.54
2024-05-09T04:27:23.901Z,9.52
2024-05-09T04:28:23.932Z,9.55
2024-05-09T04:29:23.939Z,9.55
2024-05-09T04:30:34.303Z,9.57
2024-05-09T04:31:23.883Z,9.59
2024-05-09T04:32:24.137Z,9.59
2024-05-09T04:33:24.151Z,9.60
2024-05-09T04:34:23.947Z,9.63
2024-05-09T04:35:23.991Z,9.66
2024-05-09T04:36:23.861Z,9.67
2024-05-09T04:37:23.836Z,9.69
2024-05-09T04:38:23.910Z,9.70
2024-05-09T04:39:23.795Z,9.72
2024-05-09T04:40:28.485Z,9.73
2024-05-09T04:41:23.833Z,9.77
2024-05-09T04:42:23.743Z,9.81
2024-05-09T04:43:23.742Z,9.87
2024-05-09T04:44:23.786Z,9.87
2024-05-09T04:45:23.716Z,9.91
2024-05-09T04:46:23.706Z,9.94
2024-05-09T04:47:23.866Z,9.96
2024-05-09T04:48:23.841Z,10.01
2024-05-09T04:49:23.929Z,10.02
2024-05-09T04:50:32.720Z,10.03
2024-05-09T04:51:23.669Z,10.06
2024-05-09T04:52:23.651Z,10.08
2024-05-09T04:53:23.745Z,10.12
2024-05-09T04:54:33.648Z,10.17
2024-05-09T04:55:23.612Z,10.20
2024-05-09T04:56:23.637Z,10.23
2024-05-09T04:57:23.606Z,10.27
2024-05-09T04:58:23.612Z,10.35
2024-05-09T04:59:23.629Z,10.36
2024-05-09T05:00:32.383Z,10.39
2024-05-09T05:01:23.612Z,10.39
2024-05-09T05:02:23.659Z,10.41
2024-05-09T05:03:23.671Z,10.38
2024-05-09T05:04:23.518Z,10.35
2024-05-09T05:05:23.563Z,10.34
2024-05-09T05:06:23.493Z,10.38
2024-05-09T05:07:23.477Z,10.39
2024-05-09T05:08:23.541Z,10.38
2024-05-09T05:09:23.478Z,10.45
2024-05-09T05:10:32.915Z,10.45
2024-05-09T05:11:23.583Z,10.45
2024-05-09T05:12:23.571Z,10.54
2024-05-09T05:13:24.259Z,10.61
2024-05-09T05:14:23.440Z,10.68
2024-05-09T05:15:23.391Z,10.70
2024-05-09T05:16:23.387Z,10.75
2024-05-09T05:17:23.530Z,10.78
2024-05-09T05:18:23.493Z,10.80
2024-05-09T05:19:23.449Z,10.85
2024-05-09T05:20:30.920Z,10.86
2024-05-09T05:21:23.396Z,10.90
2024-05-09T05:22:23.343Z,11.01
2024-05-09T05:23:23.772Z,11.05
2024-05-09T05:24:23.321Z,11.09
2024-05-09T05:25:23.299Z,11.11
2024-05-09T05:26:23.423Z,11.09
2024-05-09T05:27:23.287Z,11.11
2024-05-09T05:28:23.335Z,11.16
2024-05-09T05:29:23.331Z,11.19
2024-05-09T05:30:29.008Z,11.19
2024-05-09T05:31:23.252Z,11.18
2024-05-09T05:32:23.409Z,11.19
2024-05-09T05:33:23.723Z,11.23
2024-05-09T05:34:23.194Z,11.30
2024-05-09T05:35:23.346Z,11.28
2024-05-09T05:36:23.166Z,11.30
2024-05-09T05:37:23.168Z,11.28
2024-05-09T05:38:26.277Z,11.30
2024-05-09T05:39:23.159Z,11.27
2024-05-09T05:40:32.155Z,11.22
2024-05-09T05:41:23.229Z,11.23
2024-05-09T05:42:23.161Z,11.23
2024-05-09T05:43:23.135Z,11.23
2024-05-09T05:44:23.119Z,11.20
2024-05-09T05:45:23.073Z,11.18
2024-05-09T05:46:23.085Z,11.19
2024-05-09T05:47:23.205Z,11.28
2024-05-09T05:48:23.354Z,11.33
2024-05-09T05:49:23.233Z,11.31
2024-05-09T05:50:28.044Z,11.34
2024-05-09T05:51:23.074Z,11.40
2024-05-09T05:52:23.033Z,11.45
2024-05-09T05:53:23.032Z,11.49
2024-05-09T05:54:23.010Z,11.51
2024-05-09T05:55:22.990Z,11.52
2024-05-09T05:56:23.013Z,11.66
2024-05-09T05:57:22.969Z,11.73
2024-05-09T05:58:22.933Z,11.77
2024-05-09T05:59:23.009Z,11.79
2024-05-09T06:00:29.826Z,11.77
2024-05-09T06:01:22.953Z,11.88
2024-05-09T06:02:23.019Z,12.04
2024-05-09T06:03:23.024Z,12.08
2024-05-09T06:04:22.877Z,12.13
2024-05-09T06:05:23.840Z,12.14
2024-05-09T06:06:22.844Z,12.21
2024-05-09T06:07:22.863Z,12.22
2024-05-09T06:08:23.718Z,12.25
2024-05-09T06:09:22.823Z,12.25
2024-05-09T06:10:29.603Z,12.26
2024-05-09T06:11:22.890Z,12.25
2024-05-09T06:12:22.942Z,12.61
2024-05-09T06:13:22.778Z,12.68
2024-05-09T06:14:22.786Z,12.66
2024-05-09T06:15:22.790Z,12.61
2024-05-09T06:16:22.737Z,12.58
2024-05-09T06:17:22.916Z,12.59
2024-05-09T06:18:23.220Z,12.51
2024-05-09T06:19:22.824Z,12.54
2024-05-09T06:20:31.590Z,12.59
2024-05-09T06:21:22.808Z,12.58
2024-05-09T06:22:22.669Z,12.61
2024-05-09T06:23:22.823Z,12.66
2024-05-09T06:24:22.655Z,12.71
2024-05-09T06:25:22.654Z,12.73
2024-05-09T06:26:22.690Z,12.79
2024-05-09T06:27:22.636Z,12.79
2024-05-09T06:28:22.607Z,12.80
2024-05-09T06:29:22.635Z,12.86
2024-05-09T06:30:30.056Z,12.87
2024-05-09T06:31:22.577Z,12.90
2024-05-09T06:32:22.776Z,12.87
2024-05-09T06:33:22.800Z,12.90
2024-05-09T06:34:22.848Z,12.95
2024-05-09T06:35:22.599Z,12.93
2024-05-09T06:36:22.564Z,12.99
2024-05-09T06:37:22.512Z,13.04
2024-05-09T06:38:22.576Z,13.11
2024-05-09T06:39:22.512Z,13.16
2024-05-09T06:40:25.900Z,13.14
2024-05-09T06:41:22.531Z,13.14
2024-05-09T06:42:22.466Z,13.20
2024-05-09T06:43:22.452Z,13.24
2024-05-09T06:44:22.616Z,13.26
2024-05-09T06:45:22.462Z,13.30
2024-05-09T06:46:22.417Z,13.32
2024-05-09T06:47:22.519Z,13.30
2024-05-09T06:48:22.975Z,13.35
2024-05-09T06:49:22.542Z,13.35
2024-05-09T06:50:24.478Z,13.39
2024-05-09T06:51:22.432Z,13.43
2024-05-09T06:52:22.412Z,13.49
2024-05-09T06:53:22.425Z,13.55
2024-05-09T06:54:22.445Z,13.60
2024-05-09T06:55:22.373Z,13.61
2024-05-09T06:56:22.395Z,13.67
2024-05-09T06:57:22.330Z,13.68
2024-05-09T06:58:22.321Z,13.65
2024-05-09T06:59:22.569Z,13.71
2024-05-09T07:00:30.205Z,13.78
2024-05-09T07:01:22.528Z,13.83
2024-05-09T07:02:22.487Z,13.88
2024-05-09T07:03:22.360Z,13.88
2024-05-09T07:04:22.369Z,13.93
2024-05-09T07:05:22.367Z,13.96
2024-05-09T07:06:22.207Z,13.96
2024-05-09T07:07:22.197Z,14.01
2024-05-09T07:08:22.348Z,14.08
2024-05-09T07:09:22.184Z,14.15
2024-05-09T07:10:28.875Z,14.21
2024-05-09T07:11:22.268Z,14.26
2024-05-09T07:12:22.242Z,14.28
2024-05-09T07:13:22.137Z,14.33
2024-05-09T07:14:22.177Z,14.33
2024-05-09T07:15:22.135Z,14.38
2024-05-09T07:16:22.120Z,14.40
2024-05-09T07:17:22.190Z,14.45
2024-05-09T07:18:22.261Z,14.48
2024-05-09T07:19:22.180Z,14.51
2024-05-09T07:20:31.623Z,14.53
2024-05-09T07:21:22.091Z,14.51
2024-05-09T07:22:22.054Z,14.56
2024-05-09T07:23:22.095Z,14.59
2024-05-09T07:24:22.008Z,14.66
2024-05-09T07:25:21.995Z,14.69
2024-05-09T07:26:22.042Z,14.70
2024-05-09T07:27:22.008Z,14.73
2024-05-09T07:28:22.024Z,14.71
2024-05-09T07:29:22.034Z,14.77
2024-05-09T07:30:27.596Z,14.82
2024-05-09T07:31:21.938Z,14.86
2024-05-09T07:32:22.140Z,14.90
2024-05-09T07:33:23.604Z,14.95
2024-05-09T07:34:22.046Z,14.97
2024-05-09T07:35:21.964Z,14.93
2024-05-09T07:36:21.898Z,14.92
2024-05-09T07:37:21.884Z,14.96
2024-05-09T07:38:22.012Z,14.97
2024-05-09T07:39:21.843Z,15.01
2024-05-09T07:40:31.561Z,14.97
2024-05-09T07:41:21.907Z,15.01
2024-05-09T07:42:21.814Z,15.07
2024-05-09T07:43:21.816Z,15.04
2024-05-09T07:44:21.888Z,15.05
2024-05-09T07:45:40.598Z,15.08
2024-05-09T07:48:56.508Z,15.14
2024-05-09T07:52:22.638Z,15.20
2024-05-09T07:53:42.105Z,15.27
2024-05-09T07:53:53.399Z,15.44
2024-05-09T07:54:44.997Z,15.48
2024-05-09T07:55:45.080Z,15.51
2024-05-09T07:56:44.997Z,15.54
2024-05-09T07:57:44.947Z,15.60
2024-05-09T07:58:44.837Z,15.72
2024-05-09T07:59:44.830Z,15.83
2024-05-09T08:00:45.040Z,15.91
2024-05-09T08:01:45.071Z,15.95
2024-05-09T08:02:44.851Z,15.95
2024-05-09T08:03:45.072Z,15.95
2024-05-09T08:04:44.954Z,15.99
2024-05-09T08:05:44.848Z,15.95
2024-05-09T08:06:44.810Z,15.95
2024-05-09T08:07:44.763Z,15.90
2024-05-09T08:08:44.779Z,15.87
2024-05-09T08:09:44.791Z,16.00
2024-05-09T08:10:44.864Z,16.06
2024-05-09T08:11:44.852Z,16.17
2024-05-09T08:12:44.675Z,16.29
2024-05-09T08:13:44.684Z,16.39
2024-05-09T08:14:44.719Z,16.57
2024-05-09T08:15:44.934Z,16.73
2024-05-09T08:16:44.643Z,16.76
2024-05-09T08:17:44.702Z,16.74
2024-05-09T08:18:44.774Z,16.72
2024-05-09T08:19:44.728Z,16.95
2024-05-09T08:20:44.653Z,16.90
2024-05-09T08:21:44.659Z,16.80
2024-05-09T08:22:44.597Z,16.74
2024-05-09T08:23:44.580Z,16.74
2024-05-09T08:24:44.628Z,16.70
2024-05-09T08:25:44.558Z,16.77
2024-05-09T08:26:44.575Z,16.91
2024-05-09T08:27:44.553Z,16.97
2024-05-09T08:28:44.582Z,17.02
2024-05-09T08:29:44.691Z,16.98
2024-05-09T08:30:44.795Z,16.95
2024-05-09T08:31:44.689Z,16.88
2024-05-09T08:32:44.609Z,16.98
2024-05-09T08:33:44.703Z,17.01
2024-05-09T08:34:44.752Z,17.06
2024-05-09T08:35:44.504Z,17.17
2024-05-09T08:36:44.498Z,17.22
2024-05-09T08:37:44.513Z,17.28
2024-05-09T08:38:44.457Z,17.35
2024-05-09T08:39:44.578Z,17.45
2024-05-09T08:40:44.641Z,17.59
2024-05-09T08:41:44.413Z,17.65
2024-05-09T08:42:44.533Z,17.69
2024-05-09T08:43:44.433Z,17.84
2024-05-09T08:44:44.375Z,17.79
2024-05-09T08:45:45.438Z,17.75
2024-05-09T08:46:44.350Z,17.72
2024-05-09T08:47:44.434Z,17.94
2024-05-09T08:48:44.582Z,18.13
2024-05-09T08:49:44.396Z,18.08
2024-05-09T08:50:45.347Z,18.09
2024-05-09T08:51:44.376Z,18.11
2024-05-09T08:52:44.296Z,18.11
2024-05-09T08:53:44.273Z,18.01
2024-05-09T08:54:44.366Z,17.96
2024-05-09T08:55:44.673Z,17.94
2024-05-09T08:56:44.264Z,17.88
2024-05-09T08:57:44.258Z,17.81
2024-05-09T08:58:44.250Z,17.87
2024-05-09T08:59:44.210Z,18.03
2024-05-09T09:00:44.703Z,18.30
2024-05-09T09:01:44.415Z,18.49
2024-05-09T09:02:44.645Z,18.57
2024-05-09T09:03:44.322Z,18.63
2024-05-09T09:04:44.335Z,18.66
2024-05-09T09:05:44.226Z,18.76
2024-05-09T09:06:44.436Z,18.81
2024-05-09T09:07:44.156Z,18.74
2024-05-09T09:08:44.129Z,18.71
2024-05-09T09:09:44.345Z,18.61
2024-05-09T09:10:44.237Z,18.51
2024-05-09T09:11:44.193Z,18.42
2024-05-09T09:12:44.236Z,18.34
2024-05-09T09:13:44.096Z,18.39
2024-05-09T09:14:44.145Z,18.56
2024-05-09T09:15:44.093Z,18.56
2024-05-09T09:16:44.093Z,18.54
2024-05-09T09:17:44.206Z,18.46
2024-05-09T09:18:44.332Z,18.49
2024-05-09T09:19:44.154Z,18.52
2024-05-09T09:20:44.227Z,18.41
2024-05-09T09:21:44.067Z,18.30
2024-05-09T09:22:44.024Z,18.24
2024-05-09T09:23:44.022Z,18.33
2024-05-09T09:24:44.047Z,18.34
2024-05-09T09:25:43.993Z,18.45
2024-05-09T09:26:43.970Z,18.51
2024-05-09T09:27:44.022Z,18.66
2024-05-09T09:28:43.939Z,18.85
2024-05-09T09:29:43.970Z,18.93
2024-05-09T09:30:44.035Z,19.26
2024-05-09T09:31:43.978Z,19.24
2024-05-09T09:32:43.992Z,19.24
2024-05-09T09:33:44.187Z,19.15
2024-05-09T09:34:43.996Z,18.97
2024-05-09T09:35:43.959Z,18.91
2024-05-09T09:36:44.030Z,18.86
2024-05-09T09:37:43.903Z,18.88
2024-05-09T09:38:43.934Z,18.76
2024-05-09T09:39:43.954Z,18.86
2024-05-09T09:40:48.306Z,18.97
2024-05-09T09:41:43.956Z,19.07
2024-05-09T09:42:43.935Z,18.83
2024-05-09T09:43:43.954Z,18.74
2024-05-09T09:44:47.771Z,18.74
2024-05-09T09:45:43.993Z,18.78
2024-05-09T09:46:43.799Z,18.81
2024-05-09T09:47:43.911Z,18.85
2024-05-09T09:48:43.910Z,18.74
2024-05-09T09:49:43.888Z,18.70
2024-05-09T09:50:43.766Z,18.71
2024-05-09T09:51:43.980Z,18.71
2024-05-09T09:52:43.746Z,18.68
2024-05-09T09:53:43.964Z,18.52
2024-05-09T09:54:43.987Z,18.51
2024-05-09T09:55:43.837Z,18.48
2024-05-09T09:56:43.765Z,18.30
2024-05-09T09:57:43.869Z,18.23
2024-05-09T09:58:43.669Z,18.20
2024-05-09T09:59:43.801Z,18.33
2024-05-09T10:00:43.922Z,18.43
2024-05-09T10:01:43.827Z,18.68
2024-05-09T10:02:43.826Z,18.71
2024-05-09T10:03:43.991Z,18.64
2024-05-09T10:04:44.021Z,18.75
2024-05-09T10:05:46.332Z,18.85
2024-05-09T10:06:43.650Z,19.00
2024-05-09T10:07:43.594Z,19.20
2024-05-09T10:08:43.589Z,19.41
2024-05-09T10:09:43.633Z,19.39
2024-05-09T10:10:43.947Z,19.16
2024-05-09T10:11:49.155Z,19.12
2024-05-09T10:12:43.583Z,19.07
2024-05-09T10:13:43.595Z,18.97
2024-05-09T10:14:43.576Z,18.82
2024-05-09T10:15:43.617Z,18.82
2024-05-09T10:16:43.572Z,18.79
2024-05-09T10:17:43.641Z,18.91
2024-05-09T10:18:43.859Z,19.12
2024-05-09T10:19:43.646Z,18.96
2024-05-09T10:20:43.921Z,18.94
2024-05-09T10:21:43.590Z,18.75
2024-05-09T10:22:43.574Z,18.88
2024-05-09T10:23:43.589Z,19.23
2024-05-09T10:24:43.536Z,19.41
2024-05-09T10:25:43.920Z,19.44
2024-05-09T10:26:43.512Z,19.62
2024-05-09T10:27:43.599Z,19.52
2024-05-09T10:28:43.525Z,20.17
2024-05-09T10:29:43.436Z,20.17
2024-05-09T10:30:44.474Z,19.53
2024-05-09T10:31:43.717Z,19.31
2024-05-09T10:32:43.490Z,19.22
2024-05-09T10:33:43.555Z,19.07
2024-05-09T10:34:43.512Z,18.89
2024-05-09T10:35:43.457Z,18.64
2024-05-09T10:36:43.585Z,18.63
2024-05-09T10:37:43.355Z,18.56
2024-05-09T10:38:43.479Z,18.54
2024-05-09T10:39:43.674Z,18.56
2024-05-09T10:40:43.456Z,18.56
2024-05-09T10:41:43.308Z,18.64
2024-05-09T10:42:43.587Z,18.75
2024-05-09T10:43:43.343Z,18.85
2024-05-09T10:44:43.273Z,18.98
2024-05-09T10:45:43.417Z,19.17
2024-05-09T10:46:43.500Z,19.81
2024-05-09T10:47:43.396Z,20.02
2024-05-09T10:48:44.268Z,20.00
2024-05-09T10:49:43.361Z,20.32
2024-05-09T10:50:43.285Z,20.37
2024-05-09T10:51:43.348Z,20.65
2024-05-09T10:52:43.250Z,20.37
2024-05-09T10:53:43.826Z,20.50
2024-05-09T10:54:43.223Z,20.70
2024-05-09T10:55:43.212Z,20.73
2024-05-09T10:56:43.236Z,20.39
2024-05-09T10:57:43.291Z,20.30
2024-05-09T10:58:43.204Z,20.25
2024-05-09T10:59:43.147Z,20.36
2024-05-09T11:00:43.283Z,20.73
2024-05-09T11:01:43.303Z,21.05
2024-05-09T11:02:43.368Z,21.45
2024-05-09T11:03:43.504Z,21.25
2024-05-09T11:04:43.229Z,20.67
2024-05-09T11:05:43.488Z,20.02
2024-05-09T11:06:43.134Z,19.81
2024-05-09T11:07:43.084Z,19.79
2024-05-09T11:08:43.082Z,19.86
2024-05-09T11:09:43.159Z,19.89
2024-05-09T11:10:43.356Z,19.81
2024-05-09T11:11:43.155Z,19.67
2024-05-09T11:12:43.137Z,19.90
2024-05-09T11:13:43.046Z,19.99
2024-05-09T11:14:43.145Z,19.97
2024-05-09T11:15:43.085Z,20.61
2024-05-09T11:16:43.071Z,20.68
2024-05-09T11:17:43.198Z,21.32
2024-05-09T11:18:43.331Z,21.11
2024-05-09T11:19:43.015Z,20.63
2024-05-09T11:20:43.021Z,20.34
2024-05-09T11:21:43.070Z,20.36
2024-05-09T11:22:42.987Z,20.52
2024-05-09T11:23:43.000Z,20.67
2024-05-09T11:24:43.072Z,21.05
2024-05-09T11:25:42.922Z,20.58
2024-05-09T11:26:42.912Z,20.36
2024-05-09T11:27:42.939Z,20.25
2024-05-09T11:28:42.941Z,20.23
2024-05-09T11:29:42.895Z,20.07
2024-05-09T11:30:43.046Z,19.96
2024-05-09T11:31:42.972Z,20.07
2024-05-09T11:32:43.073Z,20.14
2024-05-09T11:33:43.126Z,20.07
2024-05-09T11:34:43.022Z,19.81
2024-05-09T11:35:42.865Z,20.04
2024-05-09T11:36:42.901Z,20.58
2024-05-09T11:37:42.875Z,20.30
2024-05-09T11:38:43.039Z,20.15
2024-05-09T11:39:42.917Z,20.14
2024-05-09T11:40:42.864Z,21.10
2024-05-09T11:41:42.906Z,21.44
2024-05-09T11:42:42.818Z,22.07
2024-05-09T11:43:42.785Z,21.82
2024-05-09T11:44:42.815Z,21.34
2024-05-09T11:45:42.854Z,21.01
2024-05-09T11:46:42.734Z,20.95
2024-05-09T11:47:42.925Z,20.65
2024-05-09T11:48:42.910Z,20.61
2024-05-09T11:49:42.771Z,20.58
2024-05-09T11:50:42.773Z,20.61
2024-05-09T11:51:42.755Z,20.63
2024-05-09T11:52:42.729Z,20.63
2024-05-09T11:53:42.682Z,20.71
2024-05-09T11:54:42.739Z,20.97
2024-05-09T11:55:42.669Z,20.79
2024-05-09T11:56:42.658Z,20.58
2024-05-09T11:57:42.661Z,21.23
2024-05-09T11:58:42.693Z,22.46
2024-05-09T11:59:42.622Z,21.98
2024-05-09T12:00:42.643Z,21.60
2024-05-09T12:01:42.664Z,21.29
2024-05-09T12:02:42.614Z,21.16
2024-05-09T12:03:42.750Z,20.70
2024-05-09T12:04:42.779Z,20.83
2024-05-09T12:05:42.817Z,21.44
2024-05-09T12:06:42.653Z,22.11
2024-05-09T12:07:42.574Z,21.81
2024-05-09T12:08:42.571Z,21.37
2024-05-09T12:09:42.574Z,21.07
2024-05-09T12:10:42.667Z,20.85
2024-05-09T12:11:42.568Z,20.61
2024-05-09T12:12:42.574Z,20.55
2024-05-09T12:13:42.518Z,20.61
2024-05-09T12:14:42.544Z,20.75
2024-05-09T12:15:42.550Z,20.75
2024-05-09T12:16:42.660Z,20.88
2024-05-09T12:17:42.585Z,21.22
2024-05-09T12:18:42.577Z,21.01
2024-05-09T12:19:42.536Z,20.93
2024-05-09T12:20:42.475Z,20.70
2024-05-09T12:21:42.619Z,20.67
2024-05-09T12:22:42.456Z,20.74
2024-05-09T12:23:42.568Z,20.85
2024-05-09T12:24:42.440Z,20.86
2024-05-09T12:25:42.406Z,20.80
2024-05-09T12:26:42.464Z,20.49
2024-05-09T12:27:42.447Z,20.34
2024-05-09T12:28:42.376Z,20.44
2024-05-09T12:29:42.372Z,20.39
2024-05-09T12:30:42.452Z,20.36
2024-05-09T12:31:42.355Z,20.34
2024-05-09T12:32:42.427Z,20.26
2024-05-09T12:33:42.378Z,20.09
2024-05-09T12:34:42.377Z,20.19
2024-05-09T12:35:44.326Z,20.46
2024-05-09T12:36:42.364Z,20.49
2024-05-09T12:37:42.289Z,20.46
2024-05-09T12:38:42.292Z,20.33
2024-05-09T12:39:42.298Z,20.17
2024-05-09T12:40:42.475Z,20.23
2024-05-09T12:41:42.257Z,20.11
2024-05-09T12:42:42.311Z,20.27
2024-05-09T12:43:42.249Z,20.82
2024-05-09T12:44:42.254Z,20.82
2024-05-09T12:45:42.268Z,20.77
2024-05-09T12:46:42.234Z,20.90
2024-05-09T12:47:42.322Z,21.00
2024-05-09T12:48:42.360Z,21.32
2024-05-09T12:49:42.308Z,21.23
2024-05-09T12:50:42.341Z,21.23
2024-05-09T12:51:42.216Z,21.13
2024-05-09T12:52:42.168Z,20.90
2024-05-09T12:53:42.178Z,20.86
2024-05-09T12:54:42.182Z,21.05
2024-05-09T12:55:48.752Z,20.79
2024-05-09T12:56:42.146Z,20.52
2024-05-09T12:57:42.161Z,20.55
2024-05-09T12:58:42.111Z,20.53
2024-05-09T12:59:42.122Z,20.32
2024-05-09T13:00:42.292Z,20.37
2024-05-09T13:01:42.123Z,20.52